sensor_id;sensor_type;location;lat;lon;timestamp;P1;durP1;ratioP1;P2;durP2;ratioP2
10403;SDS011;5248;47.374;8.486;2023-05-10T00:02:01;0.40;;;0.30;;
10403;SDS011;5248;47.374;8.486;2023-05-10T00:04:29;0.57;;;0.57;;
10403;SDS011;5248;47.374;8.486;2023-05-10T00:06:57;0.27;;;0.27;;
10403;SDS011;5248;47.374;8.486;2023-05-10T00:09:23;0.57;;;0.20;;
10403;SDS011;5248;47.374;8.486;2023-05-10T00:11:51;0.40;;;0.40;;
10403;SDS011;5248;47.374;8.486;2023-05-10T00:14:18;0.37;;;0.33;;
10403;SDS011;5248;47.374;8.486;2023-05-10T00:16:46;2.23;;;0.30;;
10403;SDS011;5248;47.374;8.486;2023-05-10T00:19:12;1.83;;;0.43;;
10403;SDS011;5248;47.374;8.486;2023-05-10T00:21:41;0.30;;;0.30;;
10403;SDS011;5248;47.374;8.486;2023-05-10T00:24:08;0.40;;;0.37;;
10403;SDS011;5248;47.374;8.486;2023-05-10T00:26:35;0.50;;;0.50;;
10403;SDS011;5248;47.374;8.486;2023-05-10T00:29:01;1.10;;;0.40;;
10403;SDS011;5248;47.374;8.486;2023-05-10T00:31:28;0.30;;;0.30;;
10403;SDS011;5248;47.374;8.486;2023-05-10T00:33:55;0.33;;;0.33;;
10403;SDS011;5248;47.374;8.486;2023-05-10T00:36:22;2.57;;;0.60;;
10403;SDS011;5248;47.374;8.486;2023-05-10T00:38:48;0.63;;;0.30;;
10403;SDS011;5248;47.374;8.486;2023-05-10T00:41:15;2.83;;;0.37;;
10403;SDS011;5248;47.374;8.486;2023-05-10T00:43:41;0.70;;;0.60;;
10403;SDS011;5248;47.374;8.486;2023-05-10T00:46:08;0.27;;;0.27;;
10403;SDS011;5248;47.374;8.486;2023-05-10T00:48:34;0.57;;;0.30;;
10403;SDS011;5248;47.374;8.486;2023-05-10T00:51:02;0.60;;;0.30;;
10403;SDS011;5248;47.374;8.486;2023-05-10T00:53:30;0.50;;;0.40;;
10403;SDS011;5248;47.374;8.486;2023-05-10T00:55:57;1.50;;;0.23;;
10403;SDS011;5248;47.374;8.486;2023-05-10T00:58:24;0.87;;;0.57;;
10403;SDS011;5248;47.374;8.486;2023-05-10T01:00:53;0.50;;;0.37;;
10403;SDS011;5248;47.374;8.486;2023-05-10T01:03:21;0.43;;;0.30;;
10403;SDS011;5248;47.374;8.486;2023-05-10T01:05:47;1.30;;;0.40;;
10403;SDS011;5248;47.374;8.486;2023-05-10T01:08:16;2.57;;;0.50;;
10403;SDS011;5248;47.374;8.486;2023-05-10T01:10:42;0.20;;;0.20;;
10403;SDS011;5248;47.374;8.486;2023-05-10T01:13:09;1.20;;;0.33;;
10403;SDS011;5248;47.374;8.486;2023-05-10T01:15:36;0.60;;;0.30;;
10403;SDS011;5248;47.374;8.486;2023-05-10T01:18:02;0.63;;;0.50;;
10403;SDS011;5248;47.374;8.486;2023-05-10T01:20:31;1.00;;;0.50;;
10403;SDS011;5248;47.374;8.486;2023-05-10T01:23:06;0.70;;;0.40;;
10403;SDS011;5248;47.374;8.486;2023-05-10T01:25:59;0.67;;;0.30;;
10403;SDS011;5248;47.374;8.486;2023-05-10T01:31:50;0.37;;;0.30;;
10403;SDS011;5248;47.374;8.486;2023-05-10T01:34:25;0.57;;;0.50;;
10403;SDS011;5248;47.374;8.486;2023-05-10T01:36:55;0.43;;;0.37;;
10403;SDS011;5248;47.374;8.486;2023-05-10T01:39:29;1.90;;;0.50;;
10403;SDS011;5248;47.374;8.486;2023-05-10T01:42:03;0.43;;;0.43;;
10403;SDS011;5248;47.374;8.486;2023-05-10T01:44:33;0.73;;;0.40;;
10403;SDS011;5248;47.374;8.486;2023-05-10T01:47:09;0.20;;;0.20;;
10403;SDS011;5248;47.374;8.486;2023-05-10T01:49:39;0.37;;;0.30;;
10403;SDS011;5248;47.374;8.486;2023-05-10T01:52:08;0.53;;;0.40;;
10403;SDS011;5248;47.374;8.486;2023-05-10T01:54:38;0.30;;;0.30;;
10403;SDS011;5248;47.374;8.486;2023-05-10T01:57:07;0.33;;;0.30;;
10403;SDS011;5248;47.374;8.486;2023-05-10T01:59:37;0.60;;;0.40;;
10403;SDS011;5248;47.374;8.486;2023-05-10T02:02:07;0.67;;;0.30;;
10403;SDS011;5248;47.374;8.486;2023-05-10T02:04:37;0.60;;;0.60;;
10403;SDS011;5248;47.374;8.486;2023-05-10T02:07:05;1.90;;;0.40;;
10403;SDS011;5248;47.374;8.486;2023-05-10T02:09:33;1.57;;;0.60;;
10403;SDS011;5248;47.374;8.486;2023-05-10T02:12:01;0.60;;;0.40;;
10403;SDS011;5248;47.374;8.486;2023-05-10T02:14:29;1.83;;;0.33;;
10403;SDS011;5248;47.374;8.486;2023-05-10T02:16:57;0.30;;;0.30;;
10403;SDS011;5248;47.374;8.486;2023-05-10T02:19:25;1.03;;;0.50;;
10403;SDS011;5248;47.374;8.486;2023-05-10T02:21:54;0.40;;;0.40;;
10403;SDS011;5248;47.374;8.486;2023-05-10T02:24:21;0.50;;;0.50;;
10403;SDS011;5248;47.374;8.486;2023-05-10T02:26:48;1.77;;;0.40;;
10403;SDS011;5248;47.374;8.486;2023-05-10T02:29:17;1.70;;;0.47;;
10403;SDS011;5248;47.374;8.486;2023-05-10T02:31:45;0.40;;;0.40;;
10403;SDS011;5248;47.374;8.486;2023-05-10T02:34:12;1.23;;;0.80;;
10403;SDS011;5248;47.374;8.486;2023-05-10T02:36:41;0.30;;;0.30;;
10403;SDS011;5248;47.374;8.486;2023-05-10T02:39:09;0.30;;;0.30;;
10403;SDS011;5248;47.374;8.486;2023-05-10T02:41:37;1.20;;;0.30;;
10403;SDS011;5248;47.374;8.486;2023-05-10T02:44:06;1.50;;;0.30;;
10403;SDS011;5248;47.374;8.486;2023-05-10T02:46:34;0.47;;;0.30;;
10403;SDS011;5248;47.374;8.486;2023-05-10T02:49:00;0.73;;;0.63;;
10403;SDS011;5248;47.374;8.486;2023-05-10T02:51:28;1.03;;;0.30;;
10403;SDS011;5248;47.374;8.486;2023-05-10T02:54:00;1.30;;;0.50;;
10403;SDS011;5248;47.374;8.486;2023-05-10T02:56:28;0.43;;;0.43;;
10403;SDS011;5248;47.374;8.486;2023-05-10T02:58:58;0.40;;;0.40;;
10403;SDS011;5248;47.374;8.486;2023-05-10T03:01:25;1.50;;;0.57;;
10403;SDS011;5248;47.374;8.486;2023-05-10T03:03:52;0.90;;;0.50;;
10403;SDS011;5248;47.374;8.486;2023-05-10T03:06:18;0.60;;;0.60;;
10403;SDS011;5248;47.374;8.486;2023-05-10T03:08:45;1.33;;;0.50;;
10403;SDS011;5248;47.374;8.486;2023-05-10T03:11:20;0.70;;;0.60;;
10403;SDS011;5248;47.374;8.486;2023-05-10T03:13:54;1.60;;;0.60;;
10403;SDS011;5248;47.374;8.486;2023-05-10T03:16:24;0.60;;;0.60;;
10403;SDS011;5248;47.374;8.486;2023-05-10T03:18:54;0.77;;;0.63;;
10403;SDS011;5248;47.374;8.486;2023-05-10T03:21:22;0.50;;;0.50;;
10403;SDS011;5248;47.374;8.486;2023-05-10T03:23:53;0.47;;;0.47;;
10403;SDS011;5248;47.374;8.486;2023-05-10T03:26:25;0.77;;;0.60;;
10403;SDS011;5248;47.374;8.486;2023-05-10T03:28:53;0.50;;;0.50;;
10403;SDS011;5248;47.374;8.486;2023-05-10T03:31:19;0.70;;;0.60;;
10403;SDS011;5248;47.374;8.486;2023-05-10T03:33:46;0.83;;;0.60;;
10403;SDS011;5248;47.374;8.486;2023-05-10T03:36:13;2.00;;;0.90;;
10403;SDS011;5248;47.374;8.486;2023-05-10T03:38:41;0.80;;;0.80;;
10403;SDS011;5248;47.374;8.486;2023-05-10T03:41:08;1.70;;;0.90;;
10403;SDS011;5248;47.374;8.486;2023-05-10T03:43:36;1.40;;;0.67;;
10403;SDS011;5248;47.374;8.486;2023-05-10T03:46:03;0.90;;;0.73;;
10403;SDS011;5248;47.374;8.486;2023-05-10T03:48:30;0.80;;;0.80;;
10403;SDS011;5248;47.374;8.486;2023-05-10T03:50:59;0.90;;;0.90;;
10403;SDS011;5248;47.374;8.486;2023-05-10T03:53:28;0.90;;;0.90;;
10403;SDS011;5248;47.374;8.486;2023-05-10T03:55:55;0.80;;;0.80;;
10403;SDS011;5248;47.374;8.486;2023-05-10T03:58:22;0.70;;;0.70;;
10403;SDS011;5248;47.374;8.486;2023-05-10T04:00:51;0.77;;;0.77;;
10403;SDS011;5248;47.374;8.486;2023-05-10T04:03:20;3.53;;;1.60;;
10403;SDS011;5248;47.374;8.486;2023-05-10T04:05:46;0.90;;;0.90;;
10403;SDS011;5248;47.374;8.486;2023-05-10T04:08:13;1.37;;;1.00;;
10403;SDS011;5248;47.374;8.486;2023-05-10T04:10:41;3.03;;;1.20;;
10403;SDS011;5248;47.374;8.486;2023-05-10T04:13:07;1.00;;;0.90;;
10403;SDS011;5248;47.374;8.486;2023-05-10T04:15:34;1.67;;;1.20;;
10403;SDS011;5248;47.374;8.486;2023-05-10T04:18:03;1.23;;;1.13;;
10403;SDS011;5248;47.374;8.486;2023-05-10T04:20:29;1.00;;;1.00;;
10403;SDS011;5248;47.374;8.486;2023-05-10T04:22:58;0.90;;;0.90;;
10403;SDS011;5248;47.374;8.486;2023-05-10T04:25:25;4.63;;;4.30;;
10403;SDS011;5248;47.374;8.486;2023-05-10T04:27:51;1.70;;;1.60;;
10403;SDS011;5248;47.374;8.486;2023-05-10T04:30:18;1.93;;;1.20;;
10403;SDS011;5248;47.374;8.486;2023-05-10T04:32:44;1.13;;;0.87;;
10403;SDS011;5248;47.374;8.486;2023-05-10T04:35:12;1.13;;;0.70;;
10403;SDS011;5248;47.374;8.486;2023-05-10T04:37:39;1.00;;;1.00;;
10403;SDS011;5248;47.374;8.486;2023-05-10T04:40:07;1.63;;;0.57;;
10403;SDS011;5248;47.374;8.486;2023-05-10T04:42:34;0.97;;;0.87;;
10403;SDS011;5248;47.374;8.486;2023-05-10T04:45:00;0.70;;;0.70;;
10403;SDS011;5248;47.374;8.486;2023-05-10T04:47:27;2.93;;;0.77;;
10403;SDS011;5248;47.374;8.486;2023-05-10T04:49:54;0.80;;;0.73;;
10403;SDS011;5248;47.374;8.486;2023-05-10T04:52:22;0.73;;;0.73;;
10403;SDS011;5248;47.374;8.486;2023-05-10T04:54:48;1.60;;;0.90;;
10403;SDS011;5248;47.374;8.486;2023-05-10T04:57:17;0.53;;;0.53;;
10403;SDS011;5248;47.374;8.486;2023-05-10T04:59:44;1.93;;;1.07;;
10403;SDS011;5248;47.374;8.486;2023-05-10T05:02:11;0.70;;;0.70;;
10403;SDS011;5248;47.374;8.486;2023-05-10T05:04:37;0.80;;;0.80;;
10403;SDS011;5248;47.374;8.486;2023-05-10T05:07:04;0.90;;;0.90;;
10403;SDS011;5248;47.374;8.486;2023-05-10T05:09:32;3.23;;;0.90;;
10403;SDS011;5248;47.374;8.486;2023-05-10T05:11:58;0.87;;;0.70;;
10403;SDS011;5248;47.374;8.486;2023-05-10T05:14:25;1.97;;;1.00;;
10403;SDS011;5248;47.374;8.486;2023-05-10T05:16:52;1.07;;;0.80;;
10403;SDS011;5248;47.374;8.486;2023-05-10T05:19:19;1.00;;;0.90;;
10403;SDS011;5248;47.374;8.486;2023-05-10T05:21:45;0.70;;;0.63;;
10403;SDS011;5248;47.374;8.486;2023-05-10T05:24:12;2.73;;;0.70;;
10403;SDS011;5248;47.374;8.486;2023-05-10T05:26:40;0.73;;;0.73;;
10403;SDS011;5248;47.374;8.486;2023-05-10T05:29:06;1.53;;;0.83;;
10403;SDS011;5248;47.374;8.486;2023-05-10T05:31:33;3.17;;;1.00;;
10403;SDS011;5248;47.374;8.486;2023-05-10T05:33:59;1.03;;;0.80;;
10403;SDS011;5248;47.374;8.486;2023-05-10T05:36:27;1.23;;;0.80;;
10403;SDS011;5248;47.374;8.486;2023-05-10T05:38:54;0.60;;;0.60;;
10403;SDS011;5248;47.374;8.486;2023-05-10T05:41:20;0.80;;;0.70;;
10403;SDS011;5248;47.374;8.486;2023-05-10T05:43:50;0.70;;;0.70;;
10403;SDS011;5248;47.374;8.486;2023-05-10T05:46:16;0.70;;;0.70;;
10403;SDS011;5248;47.374;8.486;2023-05-10T05:48:43;0.70;;;0.70;;
10403;SDS011;5248;47.374;8.486;2023-05-10T05:51:10;3.00;;;0.90;;
10403;SDS011;5248;47.374;8.486;2023-05-10T05:53:36;0.77;;;0.77;;
10403;SDS011;5248;47.374;8.486;2023-05-10T05:56:03;2.43;;;1.03;;
10403;SDS011;5248;47.374;8.486;2023-05-10T05:58:30;2.13;;;0.70;;
10403;SDS011;5248;47.374;8.486;2023-05-10T06:00:58;1.70;;;0.70;;
10403;SDS011;5248;47.374;8.486;2023-05-10T06:03:25;0.97;;;0.60;;
10403;SDS011;5248;47.374;8.486;2023-05-10T06:05:51;1.00;;;0.70;;
10403;SDS011;5248;47.374;8.486;2023-05-10T06:08:17;2.10;;;0.90;;
10403;SDS011;5248;47.374;8.486;2023-05-10T06:10:45;0.90;;;0.70;;
10403;SDS011;5248;47.374;8.486;2023-05-10T06:13:11;1.03;;;0.90;;
10403;SDS011;5248;47.374;8.486;2023-05-10T06:15:40;2.27;;;0.80;;
10403;SDS011;5248;47.374;8.486;2023-05-10T06:18:08;1.00;;;0.67;;
10403;SDS011;5248;47.374;8.486;2023-05-10T06:20:35;2.97;;;0.80;;
10403;SDS011;5248;47.374;8.486;2023-05-10T06:23:01;1.23;;;0.70;;
10403;SDS011;5248;47.374;8.486;2023-05-10T06:25:28;1.07;;;0.90;;
10403;SDS011;5248;47.374;8.486;2023-05-10T06:27:54;2.30;;;0.90;;
10403;SDS011;5248;47.374;8.486;2023-05-10T06:30:23;0.97;;;0.67;;
10403;SDS011;5248;47.374;8.486;2023-05-10T06:32:52;0.87;;;0.80;;
10403;SDS011;5248;47.374;8.486;2023-05-10T06:35:21;0.80;;;0.80;;
10403;SDS011;5248;47.374;8.486;2023-05-10T06:37:49;1.03;;;1.03;;
10403;SDS011;5248;47.374;8.486;2023-05-10T06:40:16;1.63;;;0.80;;
10403;SDS011;5248;47.374;8.486;2023-05-10T06:42:43;0.70;;;0.70;;
10403;SDS011;5248;47.374;8.486;2023-05-10T06:45:10;1.53;;;1.20;;
10403;SDS011;5248;47.374;8.486;2023-05-10T06:47:38;1.57;;;1.47;;
10403;SDS011;5248;47.374;8.486;2023-05-10T06:50:04;1.20;;;1.10;;
10403;SDS011;5248;47.374;8.486;2023-05-10T06:52:34;1.40;;;1.30;;
10403;SDS011;5248;47.374;8.486;2023-05-10T06:55:00;1.63;;;1.10;;
10403;SDS011;5248;47.374;8.486;2023-05-10T06:57:30;1.20;;;1.10;;
10403;SDS011;5248;47.374;8.486;2023-05-10T06:59:58;1.10;;;1.03;;
10403;SDS011;5248;47.374;8.486;2023-05-10T07:02:25;1.70;;;1.30;;
10403;SDS011;5248;47.374;8.486;2023-05-10T07:04:51;1.27;;;1.17;;
10403;SDS011;5248;47.374;8.486;2023-05-10T07:07:18;2.20;;;2.00;;
10403;SDS011;5248;47.374;8.486;2023-05-10T07:09:46;1.20;;;1.00;;
10403;SDS011;5248;47.374;8.486;2023-05-10T07:12:14;2.93;;;0.73;;
10403;SDS011;5248;47.374;8.486;2023-05-10T07:14:41;1.73;;;0.93;;
10403;SDS011;5248;47.374;8.486;2023-05-10T07:17:07;1.13;;;1.00;;
10403;SDS011;5248;47.374;8.486;2023-05-10T07:19:34;1.70;;;0.80;;
10403;SDS011;5248;47.374;8.486;2023-05-10T07:22:01;0.80;;;0.70;;
10403;SDS011;5248;47.374;8.486;2023-05-10T07:24:29;1.13;;;0.80;;
10403;SDS011;5248;47.374;8.486;2023-05-10T07:26:57;2.53;;;0.80;;
10403;SDS011;5248;47.374;8.486;2023-05-10T07:29:23;2.27;;;0.60;;
10403;SDS011;5248;47.374;8.486;2023-05-10T07:31:50;0.73;;;0.73;;
10403;SDS011;5248;47.374;8.486;2023-05-10T07:34:18;1.30;;;0.83;;
10403;SDS011;5248;47.374;8.486;2023-05-10T07:36:45;2.43;;;0.80;;
10403;SDS011;5248;47.374;8.486;2023-05-10T07:39:11;0.77;;;0.70;;
10403;SDS011;5248;47.374;8.486;2023-05-10T07:41:38;0.97;;;0.87;;
10403;SDS011;5248;47.374;8.486;2023-05-10T07:44:06;0.83;;;0.83;;
10403;SDS011;5248;47.374;8.486;2023-05-10T07:46:33;1.67;;;0.63;;
10403;SDS011;5248;47.374;8.486;2023-05-10T07:48:59;0.83;;;0.83;;
10403;SDS011;5248;47.374;8.486;2023-05-10T07:51:28;1.40;;;1.30;;
10403;SDS011;5248;47.374;8.486;2023-05-10T07:53:57;1.30;;;1.10;;
10403;SDS011;5248;47.374;8.486;2023-05-10T07:56:27;3.80;;;1.03;;
10403;SDS011;5248;47.374;8.486;2023-05-10T07:58:57;0.80;;;0.80;;
10403;SDS011;5248;47.374;8.486;2023-05-10T08:01:26;2.97;;;0.80;;
10403;SDS011;5248;47.374;8.486;2023-05-10T08:03:53;2.60;;;0.93;;
10403;SDS011;5248;47.374;8.486;2023-05-10T08:06:20;1.40;;;1.10;;
10403;SDS011;5248;47.374;8.486;2023-05-10T08:08:47;1.20;;;1.07;;
10403;SDS011;5248;47.374;8.486;2023-05-10T08:11:15;1.33;;;0.90;;
10403;SDS011;5248;47.374;8.486;2023-05-10T08:13:42;2.40;;;1.10;;
10403;SDS011;5248;47.374;8.486;2023-05-10T08:16:09;0.73;;;0.73;;
10403;SDS011;5248;47.374;8.486;2023-05-10T08:18:38;2.73;;;1.07;;
10403;SDS011;5248;47.374;8.486;2023-05-10T08:21:04;1.93;;;0.90;;
10403;SDS011;5248;47.374;8.486;2023-05-10T08:23:31;1.67;;;1.23;;
10403;SDS011;5248;47.374;8.486;2023-05-10T08:25:58;2.47;;;1.57;;
10403;SDS011;5248;47.374;8.486;2023-05-10T08:28:25;1.60;;;1.00;;
10403;SDS011;5248;47.374;8.486;2023-05-10T08:30:53;5.47;;;1.10;;
10403;SDS011;5248;47.374;8.486;2023-05-10T08:33:20;1.83;;;1.20;;
10403;SDS011;5248;47.374;8.486;2023-05-10T08:35:49;0.90;;;0.90;;
10403;SDS011;5248;47.374;8.486;2023-05-10T08:38:15;2.77;;;0.90;;
10403;SDS011;5248;47.374;8.486;2023-05-10T08:40:43;3.03;;;1.13;;
10403;SDS011;5248;47.374;8.486;2023-05-10T08:43:11;3.00;;;0.90;;
10403;SDS011;5248;47.374;8.486;2023-05-10T08:45:40;2.77;;;1.07;;
10403;SDS011;5248;47.374;8.486;2023-05-10T08:48:11;2.03;;;1.00;;
10403;SDS011;5248;47.374;8.486;2023-05-10T08:50:39;1.50;;;1.00;;
10403;SDS011;5248;47.374;8.486;2023-05-10T08:53:09;3.47;;;1.47;;
10403;SDS011;5248;47.374;8.486;2023-05-10T08:55:36;3.70;;;1.50;;
10403;SDS011;5248;47.374;8.486;2023-05-10T08:58:03;3.60;;;2.10;;
10403;SDS011;5248;47.374;8.486;2023-05-10T09:00:30;2.10;;;1.90;;
10403;SDS011;5248;47.374;8.486;2023-05-10T09:02:57;3.60;;;2.07;;
10403;SDS011;5248;47.374;8.486;2023-05-10T09:05:24;1.57;;;1.20;;
10403;SDS011;5248;47.374;8.486;2023-05-10T09:07:51;1.70;;;1.03;;
10403;SDS011;5248;47.374;8.486;2023-05-10T09:10:19;3.60;;;1.20;;
10403;SDS011;5248;47.374;8.486;2023-05-10T09:12:46;2.37;;;1.27;;
10403;SDS011;5248;47.374;8.486;2023-05-10T09:15:14;2.67;;;1.20;;
10403;SDS011;5248;47.374;8.486;2023-05-10T09:17:44;2.97;;;1.30;;
10403;SDS011;5248;47.374;8.486;2023-05-10T09:20:10;2.33;;;0.97;;
10403;SDS011;5248;47.374;8.486;2023-05-10T09:22:37;3.07;;;1.23;;
10403;SDS011;5248;47.374;8.486;2023-05-10T09:25:05;5.80;;;1.40;;
10403;SDS011;5248;47.374;8.486;2023-05-10T09:27:35;2.23;;;0.97;;
10403;SDS011;5248;47.374;8.486;2023-05-10T09:30:02;2.03;;;1.30;;
10403;SDS011;5248;47.374;8.486;2023-05-10T09:32:36;3.63;;;1.30;;
10403;SDS011;5248;47.374;8.486;2023-05-10T09:35:07;2.27;;;1.10;;
10403;SDS011;5248;47.374;8.486;2023-05-10T09:37:38;1.20;;;1.10;;
10403;SDS011;5248;47.374;8.486;2023-05-10T09:40:06;1.55;;;1.10;;
10403;SDS011;5248;47.374;8.486;2023-05-10T09:42:35;2.72;;;1.00;;
10403;SDS011;5248;47.374;8.486;2023-05-10T09:45:03;4.43;;;1.23;;
10403;SDS011;5248;47.374;8.486;2023-05-10T09:47:32;2.85;;;1.27;;
10403;SDS011;5248;47.374;8.486;2023-05-10T09:50:00;2.10;;;1.20;;
10403;SDS011;5248;47.374;8.486;2023-05-10T09:52:29;3.85;;;1.65;;
10403;SDS011;5248;47.374;8.486;2023-05-10T09:54:56;2.33;;;1.20;;
10403;SDS011;5248;47.374;8.486;2023-05-10T09:57:24;3.20;;;1.23;;
10403;SDS011;5248;47.374;8.486;2023-05-10T09:59:52;2.57;;;1.03;;
10403;SDS011;5248;47.374;8.486;2023-05-10T10:02:20;3.33;;;1.03;;
10403;SDS011;5248;47.374;8.486;2023-05-10T10:04:48;4.03;;;1.20;;
10403;SDS011;5248;47.374;8.486;2023-05-10T10:07:17;3.77;;;1.10;;
10403;SDS011;5248;47.374;8.486;2023-05-10T10:09:48;1.77;;;1.13;;
10403;SDS011;5248;47.374;8.486;2023-05-10T10:12:15;1.70;;;0.80;;
10403;SDS011;5248;47.374;8.486;2023-05-10T10:14:45;1.60;;;1.10;;
10403;SDS011;5248;47.374;8.486;2023-05-10T10:17:15;3.13;;;1.10;;
10403;SDS011;5248;47.374;8.486;2023-05-10T10:19:43;2.43;;;1.20;;
10403;SDS011;5248;47.374;8.486;2023-05-10T10:22:11;2.00;;;1.80;;
10403;SDS011;5248;47.374;8.486;2023-05-10T10:24:38;4.40;;;2.70;;
10403;SDS011;5248;47.374;8.486;2023-05-10T10:27:09;1.57;;;1.30;;
10403;SDS011;5248;47.374;8.486;2023-05-10T10:29:42;3.87;;;1.10;;
10403;SDS011;5248;47.374;8.486;2023-05-10T10:32:19;4.10;;;1.47;;
10403;SDS011;5248;47.374;8.486;2023-05-10T10:34:50;2.70;;;1.30;;
10403;SDS011;5248;47.374;8.486;2023-05-10T10:37:16;4.37;;;1.10;;
10403;SDS011;5248;47.374;8.486;2023-05-10T10:39:43;3.40;;;1.10;;
10403;SDS011;5248;47.374;8.486;2023-05-10T10:42:10;2.83;;;1.13;;
10403;SDS011;5248;47.374;8.486;2023-05-10T10:44:37;1.65;;;1.10;;
10403;SDS011;5248;47.374;8.486;2023-05-10T10:47:07;2.47;;;1.02;;
10403;SDS011;5248;47.374;8.486;2023-05-10T10:50:03;4.93;;;1.25;;
10403;SDS011;5248;47.374;8.486;2023-05-10T10:52:31;3.40;;;1.35;;
10403;SDS011;5248;47.374;8.486;2023-05-10T10:55:00;3.53;;;1.55;;
10403;SDS011;5248;47.374;8.486;2023-05-10T10:57:31;2.25;;;1.20;;
10403;SDS011;5248;47.374;8.486;2023-05-10T11:03:03;3.58;;;1.00;;
10403;SDS011;5248;47.374;8.486;2023-05-10T11:08:09;1.45;;;0.90;;
10403;SDS011;5248;47.374;8.486;2023-05-10T11:10:52;1.70;;;0.90;;
10403;SDS011;5248;47.374;8.486;2023-05-10T11:13:29;1.52;;;1.08;;
10403;SDS011;5248;47.374;8.486;2023-05-10T11:15:57;1.08;;;0.90;;
10403;SDS011;5248;47.374;8.486;2023-05-10T11:18:25;2.92;;;1.30;;
10403;SDS011;5248;47.374;8.486;2023-05-10T11:20:55;1.52;;;1.00;;
10403;SDS011;5248;47.374;8.486;2023-05-10T11:23:29;1.50;;;0.90;;
10403;SDS011;5248;47.374;8.486;2023-05-10T11:25:56;2.97;;;1.60;;
10403;SDS011;5248;47.374;8.486;2023-05-10T11:28:23;1.10;;;0.98;;
10403;SDS011;5248;47.374;8.486;2023-05-10T11:30:50;2.03;;;0.82;;
10403;SDS011;5248;47.374;8.486;2023-05-10T11:33:17;2.30;;;1.30;;
10403;SDS011;5248;47.374;8.486;2023-05-10T11:35:44;3.50;;;1.35;;
10403;SDS011;5248;47.374;8.486;2023-05-10T11:38:13;1.73;;;1.30;;
10403;SDS011;5248;47.374;8.486;2023-05-10T11:40:40;0.80;;;0.73;;
10403;SDS011;5248;47.374;8.486;2023-05-10T11:43:08;4.30;;;1.35;;
10403;SDS011;5248;47.374;8.486;2023-05-10T11:45:40;4.32;;;1.48;;
10403;SDS011;5248;47.374;8.486;2023-05-10T11:48:07;1.73;;;0.82;;
10403;SDS011;5248;47.374;8.486;2023-05-10T11:50:33;2.60;;;1.08;;
10403;SDS011;5248;47.374;8.486;2023-05-10T11:53:00;2.65;;;1.30;;
10403;SDS011;5248;47.374;8.486;2023-05-10T11:55:30;1.33;;;0.90;;
10403;SDS011;5248;47.374;8.486;2023-05-10T11:58:00;4.05;;;1.10;;
10403;SDS011;5248;47.374;8.486;2023-05-10T12:00:27;4.03;;;1.55;;
10403;SDS011;5248;47.374;8.486;2023-05-10T12:02:53;3.08;;;1.33;;
10403;SDS011;5248;47.374;8.486;2023-05-10T12:05:20;1.70;;;0.93;;
10403;SDS011;5248;47.374;8.486;2023-05-10T12:07:49;4.05;;;1.30;;
10403;SDS011;5248;47.374;8.486;2023-05-10T12:10:17;3.10;;;1.40;;
10403;SDS011;5248;47.374;8.486;2023-05-10T12:12:53;1.63;;;0.85;;
10403;SDS011;5248;47.374;8.486;2023-05-10T12:15:20;3.65;;;1.20;;
10403;SDS011;5248;47.374;8.486;2023-05-10T12:17:48;2.30;;;1.13;;
10403;SDS011;5248;47.374;8.486;2023-05-10T12:20:16;1.35;;;0.95;;
10403;SDS011;5248;47.374;8.486;2023-05-10T12:22:45;0.60;;;0.60;;
10403;SDS011;5248;47.374;8.486;2023-05-10T12:25:12;1.45;;;1.20;;
10403;SDS011;5248;47.374;8.486;2023-05-10T12:27:39;2.58;;;1.45;;
10403;SDS011;5248;47.374;8.486;2023-05-10T12:30:08;2.20;;;1.08;;
10403;SDS011;5248;47.374;8.486;2023-05-10T12:32:38;2.80;;;1.55;;
10403;SDS011;5248;47.374;8.486;2023-05-10T12:35:06;2.80;;;1.20;;
10403;SDS011;5248;47.374;8.486;2023-05-10T12:37:33;2.35;;;1.20;;
10403;SDS011;5248;47.374;8.486;2023-05-10T12:40:01;3.05;;;1.20;;
10403;SDS011;5248;47.374;8.486;2023-05-10T12:42:30;1.55;;;1.10;;
10403;SDS011;5248;47.374;8.486;2023-05-10T12:45:00;2.90;;;1.40;;
10403;SDS011;5248;47.374;8.486;2023-05-10T12:47:28;5.43;;;1.60;;
10403;SDS011;5248;47.374;8.486;2023-05-10T12:49:55;1.52;;;0.93;;
10403;SDS011;5248;47.374;8.486;2023-05-10T12:52:22;2.50;;;1.30;;
10403;SDS011;5248;47.374;8.486;2023-05-10T12:54:49;1.67;;;1.20;;
10403;SDS011;5248;47.374;8.486;2023-05-10T12:57:15;2.53;;;1.17;;
10403;SDS011;5248;47.374;8.486;2023-05-10T12:59:42;1.50;;;1.10;;
10403;SDS011;5248;47.374;8.486;2023-05-10T13:02:20;2.13;;;1.13;;
10403;SDS011;5248;47.374;8.486;2023-05-10T13:04:49;1.02;;;1.00;;
10403;SDS011;5248;47.374;8.486;2023-05-10T13:07:16;2.42;;;1.30;;
10403;SDS011;5248;47.374;8.486;2023-05-10T13:09:42;2.50;;;1.15;;
10403;SDS011;5248;47.374;8.486;2023-05-10T13:12:08;3.25;;;1.70;;
10403;SDS011;5248;47.374;8.486;2023-05-10T13:14:35;1.75;;;1.20;;
10403;SDS011;5248;47.374;8.486;2023-05-10T13:17:04;3.17;;;1.55;;
10403;SDS011;5248;47.374;8.486;2023-05-10T13:19:30;2.05;;;1.52;;
10403;SDS011;5248;47.374;8.486;2023-05-10T13:21:58;3.15;;;1.48;;
10403;SDS011;5248;47.374;8.486;2023-05-10T13:24:26;1.25;;;1.05;;
10403;SDS011;5248;47.374;8.486;2023-05-10T13:26:52;3.75;;;1.60;;
10403;SDS011;5248;47.374;8.486;2023-05-10T13:29:19;2.95;;;1.50;;
10403;SDS011;5248;47.374;8.486;2023-05-10T13:31:47;3.65;;;1.58;;
10403;SDS011;5248;47.374;8.486;2023-05-10T13:34:14;5.47;;;1.92;;
10403;SDS011;5248;47.374;8.486;2023-05-10T13:36:41;2.15;;;1.58;;
10403;SDS011;5248;47.374;8.486;2023-05-10T13:39:09;1.52;;;1.40;;
10403;SDS011;5248;47.374;8.486;2023-05-10T13:41:37;1.63;;;1.52;;
10403;SDS011;5248;47.374;8.486;2023-05-10T13:44:03;3.55;;;1.20;;
10403;SDS011;5248;47.374;8.486;2023-05-10T13:46:30;3.83;;;1.58;;
10403;SDS011;5248;47.374;8.486;2023-05-10T13:48:57;2.03;;;1.27;;
10403;SDS011;5248;47.374;8.486;2023-05-10T13:51:23;2.50;;;1.60;;
10403;SDS011;5248;47.374;8.486;2023-05-10T13:53:50;3.10;;;1.67;;
10403;SDS011;5248;47.374;8.486;2023-05-10T13:56:18;3.97;;;1.88;;
10403;SDS011;5248;47.374;8.486;2023-05-10T13:58:45;3.70;;;1.70;;
10403;SDS011;5248;47.374;8.486;2023-05-10T14:01:13;5.03;;;2.08;;
10403;SDS011;5248;47.374;8.486;2023-05-10T14:03:40;5.78;;;1.65;;
10403;SDS011;5248;47.374;8.486;2023-05-10T14:06:07;5.38;;;1.92;;
10403;SDS011;5248;47.374;8.486;2023-05-10T14:08:34;4.40;;;2.17;;
10403;SDS011;5248;47.374;8.486;2023-05-10T14:11:01;2.53;;;1.70;;
10403;SDS011;5248;47.374;8.486;2023-05-10T14:13:29;3.30;;;1.67;;
10403;SDS011;5248;47.374;8.486;2023-05-10T14:15:55;4.22;;;2.53;;
10403;SDS011;5248;47.374;8.486;2023-05-10T14:18:23;2.77;;;1.77;;
10403;SDS011;5248;47.374;8.486;2023-05-10T14:20:50;2.37;;;1.67;;
10403;SDS011;5248;47.374;8.486;2023-05-10T14:23:17;2.27;;;1.63;;
10403;SDS011;5248;47.374;8.486;2023-05-10T14:25:44;2.20;;;1.67;;
10403;SDS011;5248;47.374;8.486;2023-05-10T14:28:11;2.00;;;1.85;;
10403;SDS011;5248;47.374;8.486;2023-05-10T14:30:39;2.25;;;1.42;;
10403;SDS011;5248;47.374;8.486;2023-05-10T14:33:06;3.03;;;1.88;;
10403;SDS011;5248;47.374;8.486;2023-05-10T14:35:32;3.83;;;1.58;;
10403;SDS011;5248;47.374;8.486;2023-05-10T14:37:59;3.30;;;1.73;;
10403;SDS011;5248;47.374;8.486;2023-05-10T14:40:25;1.42;;;1.20;;
10403;SDS011;5248;47.374;8.486;2023-05-10T14:42:52;3.15;;;1.52;;
10403;SDS011;5248;47.374;8.486;2023-05-10T14:45:18;1.55;;;1.45;;
10403;SDS011;5248;47.374;8.486;2023-05-10T14:47:47;1.77;;;1.38;;
10403;SDS011;5248;47.374;8.486;2023-05-10T14:50:16;1.70;;;1.40;;
10403;SDS011;5248;47.374;8.486;2023-05-10T14:52:43;1.57;;;1.43;;
10403;SDS011;5248;47.374;8.486;2023-05-10T14:55:09;2.90;;;1.63;;
10403;SDS011;5248;47.374;8.486;2023-05-10T14:57:36;1.27;;;1.17;;
10403;SDS011;5248;47.374;8.486;2023-05-10T15:00:03;3.83;;;1.70;;
10403;SDS011;5248;47.374;8.486;2023-05-10T15:02:32;1.40;;;1.23;;
10403;SDS011;5248;47.374;8.486;2023-05-10T15:05:00;2.67;;;1.40;;
10403;SDS011;5248;47.374;8.486;2023-05-10T15:07:27;1.60;;;1.23;;
10403;SDS011;5248;47.374;8.486;2023-05-10T15:09:53;1.10;;;1.00;;
10403;SDS011;5248;47.374;8.486;2023-05-10T15:12:21;3.00;;;1.43;;
10403;SDS011;5248;47.374;8.486;2023-05-10T15:14:47;2.90;;;1.33;;